createdAt,value
2024-01-06T00:02:48.126Z,3.42
2024-01-06T00:05:49.642Z,2.63
2024-01-06T00:08:51.124Z,2.20
2024-01-06T00:11:52.528Z,2.78
2024-01-06T00:14:53.921Z,3.45
2024-01-06T00:17:55.462Z,1.90
2024-01-06T00:20:56.941Z,2.75
2024-01-06T00:23:58.335Z,2.50
2024-01-06T00:26:59.724Z,3.03
2024-01-06T00:30:01.140Z,2.88
2024-01-06T00:33:02.542Z,2.83
2024-01-06T00:36:04.008Z,3.50
2024-01-06T00:39:05.400Z,2.50
2024-01-06T00:42:06.855Z,2.10
2024-01-06T00:45:08.369Z,2.55
2024-01-06T00:48:09.966Z,1.47
2024-01-06T00:51:11.512Z,3.35
2024-01-06T00:54:13.063Z,2.45
2024-01-06T00:57:14.534Z,2.20
2024-01-06T01:00:16.056Z,2.80
2024-01-06T01:03:17.545Z,1.83
2024-01-06T01:06:19.065Z,2.20
2024-01-06T01:09:20.698Z,2.07
2024-01-06T01:12:22.124Z,1.77
2024-01-06T01:15:23.687Z,1.43
2024-01-06T01:18:25.352Z,1.83
2024-01-06T01:21:26.955Z,2.13
2024-01-06T01:24:28.491Z,2.15
2024-01-06T01:27:29.961Z,2.10
2024-01-06T01:30:31.533Z,3.00
2024-01-06T01:33:33.255Z,2.22
2024-01-06T01:36:34.848Z,2.03
2024-01-06T01:39:36.341Z,1.88
2024-01-06T01:42:37.746Z,2.10
2024-01-06T01:45:39.238Z,1.50
2024-01-06T01:48:40.821Z,1.83
2024-01-06T01:51:42.409Z,2.10
2024-01-06T01:54:43.856Z,2.05
2024-01-06T01:57:45.453Z,2.10
2024-01-06T02:00:47.050Z,2.00
2024-01-06T02:03:48.549Z,1.45
2024-01-06T02:06:50.020Z,2.63
2024-01-06T02:09:51.534Z,2.03
2024-01-06T02:12:53.114Z,1.63
2024-01-06T02:15:54.749Z,2.45
2024-01-06T02:18:56.351Z,0.95
2024-01-06T02:21:57.794Z,1.70
2024-01-06T02:24:59.233Z,1.48
2024-01-06T02:28:00.700Z,1.40
2024-01-06T02:31:02.211Z,1.20
2024-01-06T02:34:03.919Z,1.97
2024-01-06T02:37:05.458Z,2.10
2024-01-06T02:40:06.865Z,1.73
2024-01-06T02:43:08.294Z,2.00
2024-01-06T02:46:09.727Z,1.70
2024-01-06T02:49:11.240Z,0.95
2024-01-06T02:52:12.746Z,2.00
2024-01-06T02:55:14.176Z,1.33
2024-01-06T02:58:15.630Z,1.45
2024-01-06T03:01:17.128Z,1.50
2024-01-06T03:04:18.719Z,1.70
2024-01-06T03:07:20.166Z,1.83
2024-01-06T03:10:21.566Z,1.08
2024-01-06T03:13:22.989Z,0.98
2024-01-06T03:16:24.420Z,1.70
2024-01-06T03:19:25.905Z,1.60
2024-01-06T03:22:27.329Z,1.42
2024-01-06T03:25:28.735Z,1.07
2024-01-06T03:28:30.133Z,1.03
2024-01-06T03:31:31.741Z,1.23
2024-01-06T03:34:33.434Z,1.70
2024-01-06T03:37:34.930Z,1.70
2024-01-06T03:40:36.372Z,1.57
2024-01-06T03:43:37.924Z,2.10
2024-01-06T03:46:39.336Z,1.00
2024-01-06T03:49:40.904Z,0.85
2024-01-06T03:52:42.391Z,1.47
2024-01-06T03:55:43.797Z,1.67
2024-01-06T03:58:45.247Z,1.27
2024-01-06T04:01:46.797Z,1.33
2024-01-06T04:04:48.380Z,0.70
2024-01-06T04:07:49.880Z,1.13
2024-01-06T04:10:51.277Z,1.13
2024-01-06T04:13:52.714Z,1.10
2024-01-06T04:16:54.315Z,1.42
2024-01-06T04:19:55.782Z,1.23
2024-01-06T04:22:57.258Z,1.05
2024-01-06T04:25:58.703Z,1.35
2024-01-06T04:29:00.141Z,1.20
2024-01-06T04:32:01.542Z,1.23
2024-01-06T04:35:02.948Z,1.10
2024-01-06T04:38:04.330Z,1.38
2024-01-06T04:41:05.754Z,0.93
2024-01-06T04:44:07.160Z,1.27
2024-01-06T04:47:08.581Z,1.15
2024-01-06T04:50:09.964Z,1.30
2024-01-06T04:53:11.359Z,0.97
2024-01-06T04:56:12.782Z,1.10
2024-01-06T04:59:14.162Z,1.52
2024-01-06T05:02:15.600Z,1.15
2024-01-06T05:05:17.053Z,1.25
2024-01-06T05:08:18.538Z,0.95
2024-01-06T05:11:19.958Z,0.90
2024-01-06T05:14:21.382Z,1.45
2024-01-06T05:17:22.819Z,1.43
2024-01-06T05:20:24.318Z,1.23
2024-01-06T05:23:25.706Z,1.00
2024-01-06T05:26:27.147Z,0.70
2024-01-06T05:29:28.562Z,0.73
2024-01-06T05:32:30.020Z,1.05
2024-01-06T05:35:31.476Z,0.70
2024-01-06T05:38:32.920Z,1.05
2024-01-06T05:41:34.348Z,0.70
2024-01-06T05:44:35.758Z,0.80
2024-01-06T05:47:37.255Z,0.98
2024-01-06T05:50:38.735Z,0.98
2024-01-06T05:53:40.141Z,1.35
2024-01-06T05:56:41.563Z,1.07
2024-01-06T05:59:42.931Z,0.83
2024-01-06T06:02:44.338Z,0.77
2024-01-06T06:05:45.756Z,0.52
2024-01-06T06:08:47.169Z,0.93
2024-01-06T06:11:48.615Z,0.73
2024-01-06T06:14:50.050Z,0.40
2024-01-06T06:17:51.454Z,1.30
2024-01-06T06:20:52.884Z,0.73
2024-01-06T06:23:54.297Z,0.97
2024-01-06T06:26:55.681Z,0.98
2024-01-06T06:29:57.117Z,0.88
2024-01-06T06:32:58.633Z,0.95
2024-01-06T06:36:00.093Z,1.30
2024-01-06T06:39:01.531Z,0.95
2024-01-06T06:42:02.941Z,0.80
2024-01-06T06:45:04.381Z,0.95
2024-01-06T06:48:05.889Z,0.88
2024-01-06T06:51:07.447Z,0.52
2024-01-06T06:54:08.898Z,0.60
2024-01-06T06:57:10.421Z,0.47
2024-01-06T07:00:11.978Z,0.50
2024-01-06T07:03:13.523Z,0.70
2024-01-06T07:06:15.142Z,1.08
2024-01-06T07:09:16.599Z,0.85
2024-01-06T07:12:18.006Z,0.77
2024-01-06T07:15:19.533Z,0.68
2024-01-06T07:18:21.308Z,0.82
2024-01-06T07:21:22.839Z,1.05
2024-01-06T07:24:24.292Z,0.52
2024-01-06T07:27:25.822Z,0.90
2024-01-06T07:30:27.311Z,0.90
2024-01-06T07:33:28.874Z,0.40
2024-01-06T07:36:30.398Z,0.68
2024-01-06T07:39:31.841Z,0.40
2024-01-06T07:42:33.297Z,0.17
2024-01-06T07:45:34.841Z,0.22
2024-01-06T07:48:36.390Z,0.22
2024-01-06T07:51:37.907Z,0.30
2024-01-06T07:54:39.377Z,0.10
2024-01-06T07:57:40.838Z,0.20
2024-01-06T08:00:42.435Z,0.00
2024-01-06T08:03:43.983Z,0.08
2024-01-06T08:06:45.466Z,0.30
2024-01-06T08:09:46.958Z,0.57
2024-01-06T08:12:48.440Z,0.00
2024-01-06T08:15:49.895Z,0.22
2024-01-06T08:18:51.467Z,0.20
2024-01-06T08:21:53.073Z,0.30
2024-01-06T08:24:54.582Z,0.30
2024-01-06T08:27:56.243Z,0.33
2024-01-06T08:30:57.781Z,0.17
2024-01-06T08:33:59.406Z,0.50
2024-01-06T08:37:00.972Z,0.20
2024-01-06T08:40:02.672Z,0.32
2024-01-06T08:43:04.359Z,0.40
2024-01-06T08:46:05.948Z,0.30
2024-01-06T08:49:07.486Z,0.47
2024-01-06T08:52:08.958Z,0.30
2024-01-06T08:55:10.361Z,0.45
2024-01-06T08:58:11.753Z,0.32
2024-01-06T09:01:13.234Z,0.08
2024-01-06T09:04:14.777Z,1.00
2024-01-06T09:07:16.193Z,1.55
2024-01-06T09:10:17.649Z,0.93
2024-01-06T09:13:19.070Z,0.90
2024-01-06T09:16:20.500Z,1.20
2024-01-06T09:19:22.130Z,1.20
2024-01-06T09:22:23.676Z,1.25
2024-01-06T09:25:25.090Z,1.80
2024-01-06T09:28:26.544Z,1.42
2024-01-06T09:31:31.777Z,1.50
2024-01-06T09:34:35.521Z,1.20
2024-01-06T09:37:39.276Z,1.85
2024-01-06T09:40:40.726Z,1.38
2024-01-06T09:43:42.102Z,1.17
2024-01-06T09:46:43.538Z,1.45
2024-01-06T09:49:45.000Z,1.00
2024-01-06T09:52:46.468Z,1.08
2024-01-06T09:55:47.877Z,0.70
2024-01-06T09:58:49.368Z,1.20
2024-01-06T10:01:50.882Z,1.00
2024-01-06T10:04:52.405Z,1.07
2024-01-06T10:07:53.820Z,0.63
2024-01-06T10:10:55.221Z,1.17
2024-01-06T10:13:56.656Z,0.63
2024-01-06T10:16:58.038Z,0.82
2024-01-06T10:19:59.583Z,0.90
2024-01-06T10:23:00.986Z,0.40
2024-01-06T10:26:05.147Z,0.50
2024-01-06T10:29:07.258Z,0.40
2024-01-06T10:32:08.715Z,0.30
2024-01-06T10:35:10.136Z,0.82
2024-01-06T10:38:11.531Z,0.57
2024-01-06T10:41:12.934Z,1.00
2024-01-06T10:44:14.310Z,0.57
2024-01-06T10:47:15.753Z,0.73
2024-01-06T10:50:17.176Z,0.45
2024-01-06T10:53:18.617Z,0.47
2024-01-06T10:56:19.989Z,0.53
2024-01-06T10:59:21.550Z,1.00
2024-01-06T11:02:22.973Z,0.30
2024-01-06T11:05:24.576Z,0.27
2024-01-06T11:08:26.137Z,0.20
2024-01-06T11:11:27.551Z,0.80
2024-01-06T11:14:28.956Z,0.60
2024-01-06T11:17:31.984Z,0.57
2024-01-06T11:20:35.220Z,0.60
2024-01-06T11:23:39.555Z,0.40
2024-01-06T11:26:41.236Z,1.10
2024-01-06T11:29:42.670Z,0.60
2024-01-06T11:32:44.092Z,1.27
2024-01-06T11:35:45.517Z,0.87
2024-01-06T11:38:46.967Z,0.40
2024-01-06T11:41:48.354Z,0.73
2024-01-06T11:44:49.800Z,1.42
2024-01-06T11:47:51.274Z,1.05
2024-01-06T11:50:52.798Z,0.25
2024-01-06T11:53:54.198Z,1.20
2024-01-06T11:56:55.647Z,0.93
2024-01-06T11:59:57.063Z,0.88
2024-01-06T12:02:58.585Z,0.70
2024-01-06T12:06:00.003Z,0.43
2024-01-06T12:09:01.456Z,0.87
2024-01-06T12:12:02.951Z,0.50
2024-01-06T12:15:04.420Z,1.40
2024-01-06T12:18:05.971Z,0.37
2024-01-06T12:21:07.445Z,0.23
2024-01-06T12:24:08.832Z,0.80
2024-01-06T12:27:10.237Z,0.70
2024-01-06T12:30:11.662Z,0.20
2024-01-06T12:33:13.245Z,0.60
2024-01-06T12:36:21.366Z,0.30
2024-01-06T12:39:28.321Z,0.57
2024-01-06T12:42:29.762Z,0.77
2024-01-06T12:45:31.228Z,0.40
2024-01-06T12:48:32.714Z,0.10
2024-01-06T12:51:34.270Z,0.65
2024-01-06T12:54:35.791Z,0.80
2024-01-06T12:57:37.422Z,0.47
2024-01-06T13:00:38.989Z,0.32
2024-01-06T13:03:40.510Z,1.10
2024-01-06T13:06:41.979Z,0.95
2024-01-06T13:09:43.533Z,0.35
2024-01-06T13:12:44.988Z,0.60
2024-01-06T13:15:46.456Z,0.30
2024-01-06T13:18:48.759Z,0.50
2024-01-06T13:21:51.067Z,0.60
2024-01-06T13:24:54.330Z,1.10
2024-01-06T13:27:56.211Z,0.50
2024-01-06T13:30:57.735Z,0.20
2024-01-06T13:33:59.251Z,0.65
2024-01-06T13:37:00.766Z,0.55
2024-01-06T13:40:02.294Z,0.50
2024-01-06T13:43:03.770Z,0.50
2024-01-06T13:46:05.279Z,0.17
2024-01-06T13:49:06.794Z,0.87
2024-01-06T13:52:08.228Z,0.53
2024-01-06T13:55:09.691Z,0.40
2024-01-06T13:58:11.142Z,0.33
2024-01-06T14:01:12.846Z,0.73
2024-01-06T14:04:14.570Z,0.40
2024-01-06T14:07:16.067Z,0.90
2024-01-06T14:10:17.521Z,0.52
2024-01-06T14:13:18.953Z,0.90
2024-01-06T14:16:20.366Z,0.43
2024-01-06T14:19:21.919Z,0.70
2024-01-06T14:22:23.515Z,0.15
2024-01-06T14:25:25.024Z,0.10
2024-01-06T14:28:26.518Z,0.50
2024-01-06T14:31:28.066Z,0.50
2024-01-06T14:34:29.641Z,0.20
2024-01-06T14:37:31.122Z,0.60
2024-01-06T14:40:32.539Z,0.80
2024-01-06T14:43:34.023Z,0.20
2024-01-06T14:46:35.445Z,0.40
2024-01-06T14:49:36.910Z,0.10
2024-01-06T14:52:38.401Z,0.75
2024-01-06T14:55:39.825Z,0.30
2024-01-06T14:58:41.230Z,0.35
2024-01-06T15:01:42.782Z,0.57
2024-01-06T15:04:44.386Z,0.30
2024-01-06T15:07:45.933Z,0.15
2024-01-06T15:10:47.404Z,0.32
2024-01-06T15:13:48.912Z,0.20
2024-01-06T15:16:50.389Z,0.47
2024-01-06T15:19:52.018Z,0.20
2024-01-06T15:22:53.655Z,0.20
2024-01-06T15:25:55.066Z,0.20
2024-01-06T15:28:56.498Z,0.30
2024-01-06T15:31:58.007Z,0.10
2024-01-06T15:34:59.513Z,0.30
2024-01-06T15:38:00.934Z,0.28
2024-01-06T15:41:04.986Z,0.40
2024-01-06T15:44:07.115Z,0.37
2024-01-06T15:47:08.544Z,0.47
2024-01-06T15:50:09.995Z,0.30
2024-01-06T15:53:11.428Z,0.45
2024-01-06T15:56:12.873Z,0.60
2024-01-06T15:59:14.273Z,0.50
2024-01-06T16:02:15.696Z,0.30
2024-01-06T16:05:17.410Z,0.25
2024-01-06T16:11:33.970Z,0.60
2024-01-06T16:14:36.394Z,0.20
2024-01-06T16:17:38.347Z,0.50
2024-01-06T16:20:39.862Z,0.45
2024-01-06T16:23:41.288Z,0.47
2024-01-06T16:26:42.722Z,0.30
2024-01-06T16:29:44.180Z,0.40
2024-01-06T16:32:45.660Z,0.20
2024-01-06T16:35:47.125Z,0.10
2024-01-06T16:38:48.583Z,0.40
2024-01-06T16:41:50.065Z,0.30
2024-01-06T16:44:51.461Z,0.40
2024-01-06T16:47:53.011Z,0.77
2024-01-06T16:50:54.524Z,1.05
2024-01-06T16:57:12.570Z,0.65
2024-01-06T17:00:14.030Z,0.22
2024-01-06T17:03:15.523Z,0.50
2024-01-06T17:06:17.037Z,0.20
2024-01-06T17:09:18.484Z,0.30
2024-01-06T17:12:22.576Z,0.40
2024-01-06T17:15:24.510Z,0.38
2024-01-06T17:18:26.175Z,0.60
2024-01-06T17:21:27.738Z,0.32
2024-01-06T17:24:29.153Z,0.30
2024-01-06T17:27:30.673Z,0.45
2024-01-06T17:30:32.190Z,0.63
2024-01-06T17:33:33.936Z,0.30
2024-01-06T17:36:35.439Z,0.40
2024-01-06T17:39:36.967Z,0.57
2024-01-06T17:42:38.469Z,0.30
2024-01-06T17:45:40.056Z,0.22
2024-01-06T17:48:41.683Z,0.88
2024-01-06T17:51:43.282Z,0.15
2024-01-06T17:54:44.912Z,0.17
2024-01-06T17:57:46.457Z,0.37
2024-01-06T18:00:47.992Z,0.00
2024-01-06T18:03:49.661Z,0.27
2024-01-06T18:06:51.212Z,0.30
2024-01-06T18:09:52.765Z,0.30
2024-01-06T18:12:54.308Z,0.35
2024-01-06T18:15:55.826Z,0.30
2024-01-06T18:18:57.396Z,0.32
2024-01-06T18:21:58.967Z,0.55
2024-01-06T18:25:00.561Z,0.25
2024-01-06T18:28:02.150Z,0.55
2024-01-06T18:31:03.716Z,0.08
2024-01-06T18:34:05.258Z,0.32
2024-01-06T18:37:06.801Z,0.40
2024-01-06T18:40:08.274Z,0.50
2024-01-06T18:43:09.769Z,0.40
2024-01-06T18:46:11.312Z,0.30
2024-01-06T18:49:12.828Z,0.10
2024-01-06T18:52:14.423Z,0.10
2024-01-06T18:55:15.956Z,0.20
2024-01-06T18:58:17.438Z,0.10
2024-01-06T19:01:19.054Z,0.30
2024-01-06T19:04:20.581Z,0.70
2024-01-06T19:07:22.118Z,0.50
2024-01-06T19:10:23.627Z,0.40
2024-01-06T19:13:25.061Z,0.15
2024-01-06T19:16:26.495Z,0.20
2024-01-06T19:19:28.109Z,0.13
2024-01-06T19:22:29.628Z,0.47
2024-01-06T19:25:31.095Z,0.50
2024-01-06T19:28:32.560Z,0.03
2024-01-06T19:31:34.072Z,0.65
2024-01-06T19:34:35.754Z,0.10
2024-01-06T19:37:37.307Z,0.07
2024-01-06T19:40:38.796Z,0.43
2024-01-06T19:43:40.275Z,0.13
2024-01-06T19:46:41.748Z,0.50
2024-01-06T19:49:43.227Z,0.35
2024-01-06T19:52:44.762Z,0.63
2024-01-06T19:55:46.208Z,0.22
2024-01-06T19:58:47.697Z,0.47
2024-01-06T20:01:49.331Z,0.30
2024-01-06T20:04:50.930Z,0.50
2024-01-06T20:07:52.443Z,0.50
2024-01-06T20:10:53.868Z,0.43
2024-01-06T20:13:55.351Z,0.10
2024-01-06T20:16:56.766Z,0.23
2024-01-06T20:19:58.312Z,0.37
2024-01-06T20:22:59.772Z,0.67
2024-01-06T20:26:01.198Z,0.40
2024-01-06T20:29:02.596Z,0.70
2024-01-06T20:32:04.262Z,0.35
2024-01-06T20:35:05.937Z,0.20
2024-01-06T20:38:07.407Z,0.40
2024-01-06T20:41:08.842Z,0.15
2024-01-06T20:44:10.494Z,0.32
2024-01-06T20:47:11.979Z,0.30
2024-01-06T20:50:13.387Z,0.20
2024-01-06T20:53:14.825Z,0.30
2024-01-06T20:56:16.347Z,0.40
2024-01-06T20:59:17.830Z,0.57
2024-01-06T21:02:19.267Z,0.67
2024-01-06T21:05:20.762Z,0.20
2024-01-06T21:08:22.204Z,0.40
2024-01-06T21:11:23.658Z,0.30
2024-01-06T21:14:25.093Z,0.40
2024-01-06T21:17:26.601Z,0.45
2024-01-06T21:20:28.054Z,0.83
2024-01-06T21:23:39.707Z,0.30
2024-01-06T21:26:46.138Z,0.30
2024-01-06T21:29:47.600Z,0.30
2024-01-06T21:32:49.099Z,0.17
2024-01-06T21:35:50.625Z,0.20
2024-01-06T21:38:52.133Z,0.90
2024-01-06T21:41:53.577Z,0.40
2024-01-06T21:44:54.994Z,0.60
2024-01-06T21:47:56.462Z,0.35
2024-01-06T21:50:57.873Z,0.40
2024-01-06T21:53:59.289Z,0.22
2024-01-06T21:57:00.797Z,0.13
2024-01-06T22:00:04.805Z,0.32
2024-01-06T22:03:07.331Z,0.57
2024-01-06T22:06:08.819Z,0.20
2024-01-06T22:09:12.689Z,0.67
2024-01-06T22:12:15.267Z,0.40
2024-01-06T22:15:16.694Z,0.35
2024-01-06T22:18:18.197Z,0.60
2024-01-06T22:21:19.699Z,0.35
2024-01-06T22:24:21.315Z,0.38
2024-01-06T22:27:22.851Z,0.20
2024-01-06T22:30:24.464Z,0.40
2024-01-06T22:33:26.086Z,0.20
2024-01-06T22:36:27.609Z,0.10
2024-01-06T22:39:29.118Z,0.30
2024-01-06T22:42:30.600Z,0.10
2024-01-06T22:45:32.120Z,0.30
2024-01-06T22:48:33.660Z,0.40
2024-01-06T22:51:35.308Z,0.40
2024-01-06T22:54:36.826Z,0.20
2024-01-06T22:57:38.560Z,0.30
2024-01-06T23:00:40.161Z,0.60
2024-01-06T23:03:41.807Z,0.50
2024-01-06T23:06:43.449Z,0.47
2024-01-06T23:09:44.991Z,0.30
2024-01-06T23:12:46.447Z,0.73
2024-01-06T23:15:47.979Z,0.60
2024-01-06T23:18:49.533Z,0.20
2024-01-06T23:21:51.019Z,0.10
2024-01-06T23:24:52.537Z,0.10
2024-01-06T23:27:54.017Z,0.63
2024-01-06T23:30:55.476Z,0.20
2024-01-06T23:33:57.148Z,0.47
2024-01-06T23:36:58.759Z,0.30
2024-01-06T23:40:00.468Z,0.10
2024-01-06T23:43:03.261Z,0.10
2024-01-06T23:46:05.864Z,0.38
2024-01-06T23:49:07.380Z,0.22
2024-01-06T23:52:08.920Z,0.10
2024-01-06T23:55:10.363Z,0.10
2024-01-06T23:58:11.856Z,0.20
